createdAt,value
2022-08-30T00:01:00.197Z,100.00
2022-08-30T00:03:27.894Z,100.00
2022-08-30T00:05:56.308Z,100.00
2022-08-30T00:08:22.953Z,100.00
2022-08-30T00:10:49.287Z,100.00
2022-08-30T00:13:15.763Z,100.00
2022-08-30T00:15:42.389Z,100.00
2022-08-30T00:18:09.071Z,100.00
2022-08-30T00:20:37.307Z,100.00
2022-08-30T00:23:04.086Z,100.00
2022-08-30T00:25:30.652Z,100.00
2022-08-30T00:27:57.007Z,100.00
2022-08-30T00:30:23.311Z,100.00
2022-08-30T00:32:49.883Z,100.00
2022-08-30T00:35:17.427Z,100.00
2022-08-30T00:37:45.104Z,100.00
2022-08-30T00:40:11.718Z,100.00
2022-08-30T00:42:38.812Z,100.00
2022-08-30T00:45:10.903Z,100.00
2022-08-30T00:47:37.232Z,100.00
2022-08-30T00:50:03.804Z,100.00
2022-08-30T00:52:30.118Z,100.00
2022-08-30T00:54:57.799Z,100.00
2022-08-30T00:57:24.124Z,100.00
2022-08-30T00:59:50.605Z,100.00
2022-08-30T01:02:18.125Z,100.00
2022-08-30T01:04:45.056Z,100.00
2022-08-30T01:07:11.530Z,100.00
2022-08-30T01:09:37.863Z,100.00
2022-08-30T01:12:05.892Z,100.00
2022-08-30T01:14:32.575Z,100.00
2022-08-30T01:16:59.123Z,100.00
2022-08-30T01:19:31.626Z,100.00
2022-08-30T01:22:00.793Z,100.00
2022-08-30T01:24:28.702Z,100.00
2022-08-30T01:26:55.200Z,100.00
2022-08-30T01:29:22.303Z,100.00
2022-08-30T01:31:48.652Z,100.00
2022-08-30T01:34:15.017Z,100.00
2022-08-30T01:36:45.088Z,100.00
2022-08-30T01:39:12.559Z,100.00
2022-08-30T01:41:40.279Z,100.00
2022-08-30T01:44:08.383Z,100.00
2022-08-30T01:46:36.346Z,100.00
2022-08-30T01:49:03.849Z,100.00
2022-08-30T01:51:30.352Z,100.00
2022-08-30T01:53:57.012Z,100.00
2022-08-30T01:56:23.419Z,100.00
2022-08-30T01:58:51.140Z,100.00
2022-08-30T02:01:18.462Z,100.00
2022-08-30T02:03:45.202Z,100.00
2022-08-30T02:06:15.778Z,100.00
2022-08-30T02:08:42.169Z,100.00
2022-08-30T02:11:09.120Z,100.00
2022-08-30T02:13:35.918Z,100.00
2022-08-30T02:16:03.568Z,100.00
2022-08-30T02:18:32.522Z,100.00
2022-08-30T02:20:58.840Z,100.00
2022-08-30T02:23:25.154Z,100.00
2022-08-30T02:25:51.467Z,100.00
2022-08-30T02:28:18.519Z,100.00
2022-08-30T02:30:45.140Z,100.00
2022-08-30T02:33:13.158Z,100.00
2022-08-30T02:35:39.584Z,100.00
2022-08-30T02:38:06.266Z,100.00
2022-08-30T02:40:32.721Z,100.00
2022-08-30T02:42:59.291Z,100.00
2022-08-30T02:45:25.727Z,100.00
2022-08-30T02:47:52.083Z,100.00
2022-08-30T02:50:19.936Z,100.00
2022-08-30T02:52:48.342Z,100.00
2022-08-30T02:55:14.835Z,100.00
2022-08-30T02:57:41.171Z,100.00
2022-08-30T03:00:10.363Z,100.00
2022-08-30T03:02:36.677Z,100.00
2022-08-30T03:05:03.282Z,100.00
2022-08-30T03:07:30.948Z,100.00
2022-08-30T03:09:57.267Z,100.00
2022-08-30T03:12:23.595Z,100.00
2022-08-30T03:14:49.915Z,100.00
2022-08-30T03:17:16.322Z,100.00
2022-08-30T03:19:43.172Z,100.00
2022-08-30T03:22:09.913Z,100.00
2022-08-30T03:24:37.775Z,100.00
2022-08-30T03:27:04.460Z,100.00
2022-08-30T03:29:30.802Z,100.00
2022-08-30T03:31:57.290Z,100.00
2022-08-30T03:34:24.559Z,100.00
2022-08-30T03:36:51.243Z,100.00
2022-08-30T03:39:17.577Z,100.00
2022-08-30T03:41:45.249Z,100.00
2022-08-30T03:44:12.271Z,100.00
2022-08-30T03:46:38.787Z,100.00
2022-08-30T03:49:05.284Z,100.00
2022-08-30T03:51:32.262Z,100.00
2022-08-30T03:53:58.603Z,100.00
2022-08-30T03:56:25.107Z,100.00
2022-08-30T03:58:52.795Z,100.00
2022-08-30T04:01:19.273Z,100.00
2022-08-30T04:03:45.660Z,100.00
2022-08-30T04:06:12.222Z,100.00
2022-08-30T04:08:38.759Z,100.00
2022-08-30T04:11:05.335Z,100.00
2022-08-30T04:13:31.700Z,100.00
2022-08-30T04:16:00.512Z,100.00
2022-08-30T04:18:26.943Z,100.00
2022-08-30T04:20:53.305Z,100.00
2022-08-30T04:23:19.910Z,100.00
2022-08-30T04:25:46.419Z,100.00
2022-08-30T04:28:13.026Z,100.00
2022-08-30T04:30:40.125Z,100.00
2022-08-30T04:33:07.783Z,100.00
2022-08-30T04:35:34.159Z,100.00
2022-08-30T04:38:00.476Z,100.00
2022-08-30T04:40:26.867Z,100.00
2022-08-30T04:42:53.194Z,100.00
2022-08-30T04:45:20.494Z,100.00
2022-08-30T04:47:47.061Z,100.00
2022-08-30T04:50:15.809Z,100.00
2022-08-30T04:52:42.486Z,100.00
2022-08-30T04:55:09.774Z,100.00
2022-08-30T04:57:36.958Z,100.00
2022-08-30T05:00:04.503Z,100.00
2022-08-30T05:02:30.864Z,100.00
2022-08-30T05:04:57.255Z,100.00
2022-08-30T05:07:24.981Z,100.00
2022-08-30T05:09:51.319Z,100.00
2022-08-30T05:12:17.618Z,100.00
2022-08-30T05:14:43.964Z,100.00
2022-08-30T05:17:12.091Z,100.00
2022-08-30T05:19:38.411Z,100.00
2022-08-30T05:22:04.802Z,100.00
2022-08-30T05:24:32.472Z,100.00
2022-08-30T05:26:58.796Z,100.00
2022-08-30T05:29:25.134Z,100.00
2022-08-30T05:31:51.515Z,100.00
2022-08-30T05:34:17.867Z,100.00
2022-08-30T05:36:44.175Z,100.00
2022-08-30T05:39:11.062Z,100.00
2022-08-30T05:41:39.313Z,100.00
2022-08-30T05:44:06.618Z,100.00
2022-08-30T05:49:05.454Z,100.00
2022-08-30T05:51:33.076Z,100.00
2022-08-30T05:53:59.780Z,100.00
2022-08-30T05:56:27.179Z,100.00
2022-08-30T05:58:55.025Z,100.00
2022-08-30T06:01:22.452Z,100.00
2022-08-30T06:03:48.771Z,100.00
2022-08-30T06:06:15.127Z,100.00
2022-08-30T06:08:41.850Z,100.00
2022-08-30T06:11:08.163Z,100.00
2022-08-30T06:13:34.491Z,100.00
2022-08-30T06:16:02.357Z,100.00
2022-08-30T06:18:28.972Z,100.00
2022-08-30T06:20:55.345Z,100.00
2022-08-30T06:23:21.662Z,100.00
2022-08-30T06:25:47.988Z,100.00
2022-08-30T06:28:14.740Z,100.00
2022-08-30T06:30:41.760Z,100.00
2022-08-30T06:33:09.455Z,100.00
2022-08-30T06:35:42.311Z,100.00
2022-08-30T06:38:18.694Z,100.00
2022-08-30T06:40:45.053Z,100.00
2022-08-30T06:43:11.404Z,100.00
2022-08-30T06:45:37.714Z,100.00
2022-08-30T06:48:04.225Z,100.00
2022-08-30T06:50:32.074Z,100.00
2022-08-30T06:52:58.399Z,100.00
2022-08-30T06:55:24.915Z,100.00
2022-08-30T06:57:51.226Z,100.00
2022-08-30T07:00:17.819Z,100.00
2022-08-30T07:02:44.232Z,100.00
2022-08-30T07:05:13.117Z,100.00
2022-08-30T07:07:43.162Z,100.00
2022-08-30T07:10:09.958Z,100.00
2022-08-30T07:12:36.570Z,100.00
2022-08-30T07:15:03.379Z,100.00
2022-08-30T07:17:34.041Z,100.00
2022-08-30T07:20:01.139Z,100.00
2022-08-30T07:22:27.447Z,100.00
2022-08-30T07:24:55.127Z,100.00
2022-08-30T07:27:21.454Z,100.00
2022-08-30T07:29:48.568Z,100.00
2022-08-30T07:32:14.954Z,100.00
2022-08-30T07:34:41.287Z,100.00
2022-08-30T07:37:07.637Z,100.00
2022-08-30T07:39:39.182Z,100.00
2022-08-30T07:42:12.318Z,100.00
2022-08-30T07:44:38.622Z,100.00
2022-08-30T07:47:05.105Z,100.00
2022-08-30T07:49:31.449Z,100.00
2022-08-30T07:51:57.779Z,100.00
2022-08-30T07:54:24.189Z,100.00
2022-08-30T07:56:50.499Z,100.00
2022-08-30T07:59:18.126Z,100.00
2022-08-30T08:01:44.493Z,100.00
2022-08-30T08:04:10.839Z,100.00
2022-08-30T08:06:39.351Z,100.00
2022-08-30T08:09:05.841Z,100.00
2022-08-30T08:11:33.826Z,100.00
2022-08-30T08:14:00.515Z,100.00
2022-08-30T08:16:29.298Z,100.00
2022-08-30T08:18:56.168Z,100.00
2022-08-30T08:21:23.435Z,100.00
2022-08-30T08:23:50.109Z,100.00
2022-08-30T08:26:16.592Z,100.00
2022-08-30T08:28:43.516Z,100.00
2022-08-30T08:31:13.817Z,100.00
2022-08-30T08:33:41.532Z,100.00
2022-08-30T08:36:09.449Z,100.00
2022-08-30T08:38:36.103Z,100.00
2022-08-30T08:41:09.090Z,100.00
2022-08-30T08:43:35.794Z,100.00
2022-08-30T08:46:04.803Z,100.00
2022-08-30T08:48:51.933Z,100.00
2022-08-30T08:51:23.651Z,100.00
2022-08-30T08:53:53.062Z,100.00
2022-08-30T08:56:19.492Z,100.00
2022-08-30T08:58:46.910Z,100.00
2022-08-30T09:01:14.222Z,100.00
2022-08-30T09:03:41.261Z,100.00
2022-08-30T09:06:12.968Z,100.00
2022-08-30T09:08:40.636Z,100.00
2022-08-30T09:11:07.835Z,100.00
2022-08-30T09:13:34.241Z,100.00
2022-08-30T09:16:00.603Z,100.00
2022-08-30T09:18:40.891Z,100.00
2022-08-30T09:21:09.180Z,100.00
2022-08-30T09:23:35.567Z,100.00
2022-08-30T09:26:05.142Z,100.00
2022-08-30T09:28:32.317Z,100.00
2022-08-30T09:31:00.627Z,100.00
2022-08-30T09:33:27.868Z,100.00
2022-08-30T09:35:54.335Z,100.00
2022-08-30T09:38:21.606Z,100.00
2022-08-30T09:40:48.991Z,100.00
2022-08-30T09:43:22.095Z,100.00
2022-08-30T09:45:49.995Z,100.00
2022-08-30T09:48:27.099Z,100.00
2022-08-30T09:50:58.111Z,100.00
2022-08-30T09:53:32.303Z,100.00
2022-08-30T09:56:03.573Z,100.00
2022-08-30T09:58:39.622Z,100.00
2022-08-30T10:01:10.639Z,100.00
2022-08-30T10:03:40.645Z,100.00
2022-08-30T10:06:10.019Z,100.00
2022-08-30T10:08:55.788Z,100.00
2022-08-30T10:11:27.268Z,100.00
2022-08-30T10:14:00.870Z,100.00
2022-08-30T10:16:35.549Z,100.00
2022-08-30T10:19:06.370Z,100.00
2022-08-30T10:21:35.706Z,100.00
2022-08-30T10:24:04.140Z,100.00
2022-08-30T10:26:32.904Z,100.00
2022-08-30T10:29:03.344Z,100.00
2022-08-30T10:31:33.311Z,100.00
2022-08-30T10:34:02.741Z,100.00
2022-08-30T10:36:31.810Z,100.00
2022-08-30T10:38:58.758Z,100.00
2022-08-30T10:41:29.072Z,100.00
2022-08-30T10:43:59.320Z,100.00
2022-08-30T10:46:29.812Z,100.00
2022-08-30T10:48:57.903Z,100.00
2022-08-30T10:51:27.590Z,100.00
2022-08-30T10:53:56.687Z,100.00
2022-08-30T10:56:24.307Z,100.00
2022-08-30T10:58:52.757Z,100.00
2022-08-30T11:01:28.467Z,100.00
2022-08-30T11:04:09.965Z,100.00
2022-08-30T11:06:45.780Z,100.00
2022-08-30T11:09:21.575Z,100.00
2022-08-30T11:11:57.691Z,100.00
2022-08-30T11:14:25.374Z,100.00
2022-08-30T11:16:53.710Z,100.00
2022-08-30T11:19:21.353Z,100.00
2022-08-30T11:21:49.745Z,100.00
2022-08-30T11:24:18.664Z,100.00
2022-08-30T11:26:52.127Z,100.00
2022-08-30T11:29:32.406Z,100.00
2022-08-30T11:31:59.546Z,100.00
2022-08-30T11:34:44.451Z,100.00
2022-08-30T11:37:29.973Z,100.00
2022-08-30T11:40:01.960Z,100.00
2022-08-30T11:42:33.225Z,100.00
2022-08-30T11:45:18.281Z,100.00
2022-08-30T11:47:46.614Z,100.00
2022-08-30T11:50:16.930Z,100.00
2022-08-30T11:52:56.210Z,100.00
2022-08-30T11:55:26.733Z,100.00
2022-08-30T11:57:57.134Z,100.00
2022-08-30T12:00:28.712Z,100.00
2022-08-30T12:02:59.115Z,100.00
2022-08-30T12:05:44.368Z,100.00
2022-08-30T12:08:31.986Z,100.00
2022-08-30T12:11:01.125Z,100.00
2022-08-30T12:13:42.429Z,100.00
2022-08-30T12:16:09.650Z,100.00
2022-08-30T12:18:42.620Z,100.00
2022-08-30T12:21:28.829Z,100.00
2022-08-30T12:24:03.547Z,100.00
2022-08-30T12:26:33.472Z,100.00
2022-08-30T12:29:08.664Z,100.00
2022-08-30T12:31:39.843Z,100.00
2022-08-30T12:34:06.477Z,100.00
2022-08-30T12:36:34.664Z,100.00
2022-08-30T12:39:05.678Z,100.00
2022-08-30T12:41:33.404Z,100.00
2022-08-30T12:43:59.946Z,100.00
2022-08-30T12:46:26.580Z,100.00
2022-08-30T12:48:53.122Z,100.00
2022-08-30T12:51:27.188Z,100.00
2022-08-30T12:53:53.663Z,100.00
2022-08-30T12:56:35.115Z,100.00
2022-08-30T12:59:08.642Z,100.00
2022-08-30T13:01:35.650Z,100.00
2022-08-30T13:04:11.242Z,100.00
2022-08-30T13:06:40.650Z,100.00
2022-08-30T13:09:07.218Z,100.00
2022-08-30T13:11:33.559Z,100.00
2022-08-30T13:14:14.756Z,100.00
2022-08-30T13:16:45.335Z,100.00
2022-08-30T13:19:27.704Z,100.00
2022-08-30T13:21:54.718Z,100.00
2022-08-30T13:24:25.225Z,100.00
2022-08-30T13:26:53.213Z,100.00
2022-08-30T13:29:21.239Z,100.00
2022-08-30T13:31:49.702Z,100.00
2022-08-30T13:34:16.107Z,100.00
2022-08-30T13:36:45.727Z,100.00
2022-08-30T13:39:12.090Z,100.00
2022-08-30T13:41:38.429Z,100.00
2022-08-30T13:44:11.358Z,100.00
2022-08-30T13:46:40.110Z,100.00
2022-08-30T13:52:19.425Z,100.00
2022-08-30T13:54:45.026Z,100.00
2022-08-30T13:57:11.357Z,100.00
2022-08-30T13:59:37.671Z,100.00
2022-08-30T14:02:08.030Z,100.00
2022-08-30T14:04:36.086Z,100.00
2022-08-30T14:07:20.594Z,100.00
2022-08-30T14:09:47.362Z,100.00
2022-08-30T14:12:13.691Z,100.00
2022-08-30T14:14:43.300Z,100.00
2022-08-30T14:17:10.589Z,100.00
2022-08-30T14:19:40.250Z,100.00
2022-08-30T14:22:06.607Z,100.00
2022-08-30T14:24:34.528Z,100.00
2022-08-30T14:27:01.039Z,100.00
2022-08-30T14:29:28.443Z,100.00
2022-08-30T14:31:55.062Z,100.00
2022-08-30T14:34:21.449Z,100.00
2022-08-30T14:36:49.140Z,100.00
2022-08-30T14:39:16.711Z,100.00
2022-08-30T14:41:44.321Z,100.00
2022-08-30T14:44:10.969Z,100.00
2022-08-30T14:46:37.416Z,100.00
2022-08-30T14:49:03.760Z,100.00
2022-08-30T14:51:32.228Z,100.00
2022-08-30T14:54:01.311Z,100.00
2022-08-30T14:56:27.635Z,100.00
2022-08-30T14:58:54.470Z,100.00
2022-08-30T15:01:20.929Z,100.00
2022-08-30T15:03:47.321Z,100.00
2022-08-30T15:06:14.191Z,100.00
2022-08-30T15:08:40.511Z,100.00
2022-08-30T15:11:09.279Z,100.00
2022-08-30T15:13:35.694Z,100.00
2022-08-30T15:16:02.273Z,100.00
2022-08-30T15:18:28.631Z,100.00
2022-08-30T15:20:56.171Z,100.00
2022-08-30T15:23:24.978Z,100.00
2022-08-30T15:25:51.408Z,99.24
2022-08-30T15:28:20.178Z,100.00
2022-08-30T15:30:46.487Z,97.40
2022-08-30T15:33:12.833Z,96.63
2022-08-30T15:35:39.163Z,96.52
2022-08-30T15:38:05.964Z,97.45
2022-08-30T15:40:32.601Z,98.45
2022-08-30T15:42:59.016Z,96.71
2022-08-30T15:45:27.083Z,96.67
2022-08-30T15:47:53.391Z,96.71
2022-08-30T15:50:19.710Z,95.11
2022-08-30T15:52:46.016Z,94.93
2022-08-30T15:55:12.338Z,93.73
2022-08-30T15:57:38.660Z,94.91
2022-08-30T16:00:06.503Z,93.09
2022-08-30T16:02:34.385Z,92.08
2022-08-30T16:05:01.600Z,92.33
2022-08-30T16:07:27.919Z,90.89
2022-08-30T16:09:54.229Z,92.63
2022-08-30T16:12:23.597Z,93.48
2022-08-30T16:14:50.318Z,93.28
2022-08-30T16:17:16.655Z,91.48
2022-08-30T16:19:45.923Z,91.53
2022-08-30T16:22:12.230Z,90.47
2022-08-30T16:24:38.586Z,89.68
2022-08-30T16:27:05.647Z,91.34
2022-08-30T16:29:35.291Z,90.65
2022-08-30T16:32:01.693Z,90.90
2022-08-30T16:34:28.017Z,91.87
2022-08-30T16:36:55.683Z,90.14
2022-08-30T16:39:22.334Z,89.55
2022-08-30T16:41:48.779Z,89.58
2022-08-30T16:44:16.048Z,91.15
2022-08-30T16:46:53.223Z,90.35
2022-08-30T16:49:20.175Z,90.69
2022-08-30T16:51:48.923Z,91.49
2022-08-30T16:54:17.565Z,90.53
2022-08-30T16:56:44.106Z,91.49
2022-08-30T16:59:11.716Z,90.97
2022-08-30T17:01:38.292Z,92.20
2022-08-30T17:04:05.898Z,91.29
2022-08-30T17:06:32.251Z,91.08
2022-08-30T17:08:58.708Z,91.44
2022-08-30T17:11:26.760Z,92.42
2022-08-30T17:13:53.419Z,92.41
2022-08-30T17:16:27.517Z,92.31
2022-08-30T17:18:54.571Z,92.01
2022-08-30T17:21:20.905Z,93.11
2022-08-30T17:23:48.258Z,93.66
2022-08-30T17:26:15.590Z,93.09
2022-08-30T17:28:43.429Z,93.77
2022-08-30T17:31:11.037Z,94.02
2022-08-30T17:33:37.500Z,94.76
2022-08-30T17:36:05.750Z,94.75
2022-08-30T17:38:32.089Z,94.77
2022-08-30T17:41:01.368Z,94.33
2022-08-30T17:43:28.352Z,94.93
2022-08-30T17:46:02.336Z,94.79
2022-08-30T17:48:29.649Z,95.23
2022-08-30T17:50:56.377Z,95.97
2022-08-30T17:53:22.966Z,95.99
2022-08-30T17:55:50.698Z,96.93
2022-08-30T17:58:17.155Z,97.45
2022-08-30T18:00:48.088Z,97.86
2022-08-30T18:03:18.105Z,98.48
2022-08-30T18:05:44.486Z,98.69
2022-08-30T18:08:13.556Z,99.12
2022-08-30T18:10:40.292Z,100.00
2022-08-30T18:13:06.664Z,100.00
2022-08-30T18:15:33.735Z,100.00
2022-08-30T18:18:00.156Z,100.00
2022-08-30T18:20:28.116Z,100.00
2022-08-30T18:22:57.808Z,100.00
2022-08-30T18:25:24.147Z,100.00
2022-08-30T18:27:58.802Z,100.00
2022-08-30T18:30:29.867Z,100.00
2022-08-30T18:32:59.995Z,100.00
2022-08-30T18:35:28.545Z,100.00
2022-08-30T18:37:54.848Z,100.00
2022-08-30T18:40:21.355Z,100.00
2022-08-30T18:42:47.736Z,100.00
2022-08-30T18:45:15.209Z,100.00
2022-08-30T18:48:01.101Z,100.00
2022-08-30T18:50:29.864Z,100.00
2022-08-30T18:52:57.122Z,100.00
2022-08-30T18:55:26.013Z,100.00
2022-08-30T18:57:52.449Z,100.00
2022-08-30T19:00:20.698Z,100.00
2022-08-30T19:02:47.145Z,100.00
2022-08-30T19:05:13.826Z,100.00
2022-08-30T19:07:41.659Z,100.00
2022-08-30T19:10:08.683Z,100.00
2022-08-30T19:12:39.070Z,100.00
2022-08-30T19:15:10.898Z,100.00
2022-08-30T19:17:38.077Z,100.00
2022-08-30T19:20:05.211Z,100.00
2022-08-30T19:23:03.430Z,100.00
2022-08-30T19:25:20.482Z,100.00
2022-08-30T19:27:47.220Z,100.00
2022-08-30T19:30:23.992Z,100.00
2022-08-30T19:32:55.271Z,100.00
2022-08-30T19:35:21.633Z,100.00
2022-08-30T19:37:47.942Z,100.00
2022-08-30T19:40:15.131Z,100.00
2022-08-30T19:42:45.969Z,100.00
2022-08-30T19:45:13.770Z,100.00
2022-08-30T19:47:40.099Z,100.00
2022-08-30T19:50:07.055Z,100.00
2022-08-30T19:52:35.238Z,100.00
2022-08-30T19:55:02.786Z,100.00
2022-08-30T19:57:29.289Z,100.00
2022-08-30T19:59:57.692Z,100.00
2022-08-30T20:02:24.067Z,100.00
2022-08-30T20:04:53.479Z,100.00
2022-08-30T20:07:24.618Z,100.00
2022-08-30T20:09:52.576Z,100.00
2022-08-30T20:12:19.144Z,100.00
2022-08-30T20:14:45.472Z,100.00
2022-08-30T20:17:13.238Z,100.00
2022-08-30T20:19:39.675Z,100.00
2022-08-30T20:22:08.280Z,100.00
2022-08-30T20:27:02.380Z,100.00
2022-08-30T20:29:28.749Z,100.00
2022-08-30T20:31:55.151Z,100.00
2022-08-30T20:34:22.811Z,100.00
2022-08-30T20:36:49.151Z,100.00
2022-08-30T20:39:17.531Z,100.00
2022-08-30T20:41:44.541Z,100.00
2022-08-30T20:44:11.918Z,100.00
2022-08-30T20:46:42.470Z,100.00
2022-08-30T20:49:08.983Z,100.00
2022-08-30T20:51:36.621Z,100.00
2022-08-30T20:54:06.135Z,100.00
2022-08-30T20:56:32.492Z,100.00
2022-08-30T20:58:58.795Z,100.00
2022-08-30T21:01:25.172Z,100.00
2022-08-30T21:03:51.518Z,100.00
2022-08-30T21:06:17.835Z,100.00
2022-08-30T21:08:45.501Z,100.00
2022-08-30T21:11:11.818Z,100.00
2022-08-30T21:13:38.147Z,100.00
2022-08-30T21:16:04.542Z,100.00
2022-08-30T21:18:31.743Z,100.00
2022-08-30T21:20:58.160Z,100.00
2022-08-30T21:23:24.488Z,100.00
2022-08-30T21:25:52.185Z,100.00
2022-08-30T21:28:19.502Z,100.00
2022-08-30T21:30:46.193Z,100.00
2022-08-30T21:33:12.534Z,100.00
2022-08-30T21:35:38.841Z,100.00
2022-08-30T21:38:05.176Z,100.00
2022-08-30T21:40:31.550Z,100.00
2022-08-30T21:43:03.695Z,100.00
2022-08-30T21:45:31.920Z,100.00
2022-08-30T21:47:58.239Z,100.00
2022-08-30T21:50:24.551Z,100.00
2022-08-30T21:52:50.881Z,100.00
2022-08-30T21:55:17.224Z,100.00
2022-08-30T21:57:43.543Z,100.00
2022-08-30T22:00:12.843Z,100.00
2022-08-30T22:02:39.146Z,100.00
2022-08-30T22:05:05.759Z,100.00
2022-08-30T22:07:32.073Z,100.00
2022-08-30T22:09:58.506Z,100.00
2022-08-30T22:12:24.826Z,100.00
2022-08-30T22:14:52.278Z,100.00
2022-08-30T22:17:19.957Z,100.00
2022-08-30T22:19:46.271Z,100.00
2022-08-30T22:22:12.607Z,100.00
2022-08-30T22:24:38.929Z,100.00
2022-08-30T22:27:05.326Z,100.00
2022-08-30T22:29:32.070Z,100.00
2022-08-30T22:31:58.470Z,100.00
2022-08-30T22:34:26.224Z,100.00
2022-08-30T22:36:52.533Z,100.00
2022-08-30T22:39:18.859Z,100.00
2022-08-30T22:41:45.207Z,100.00
2022-08-30T22:44:11.798Z,100.00
2022-08-30T22:46:38.291Z,100.00
2022-08-30T22:49:05.278Z,100.00
2022-08-30T22:51:33.520Z,100.00
2022-08-30T22:54:00.246Z,100.00
2022-08-30T22:56:26.911Z,100.00
2022-08-30T22:58:54.140Z,100.00
2022-08-30T23:01:21.392Z,100.00
2022-08-30T23:03:47.810Z,100.00
2022-08-30T23:06:14.144Z,100.00
2022-08-30T23:08:41.857Z,100.00
2022-08-30T23:11:08.174Z,100.00
2022-08-30T23:13:34.516Z,100.00
2022-08-30T23:16:01.065Z,100.00
2022-08-30T23:18:27.420Z,100.00
2022-08-30T23:20:53.722Z,100.00
2022-08-30T23:23:20.031Z,100.00
2022-08-30T23:25:47.675Z,100.00
2022-08-30T23:28:20.885Z,100.00
2022-08-30T23:30:47.347Z,100.00
2022-08-30T23:33:13.839Z,100.00
2022-08-30T23:35:40.211Z,100.00
2022-08-30T23:38:06.592Z,100.00
2022-08-30T23:40:32.951Z,100.00
2022-08-30T23:43:00.724Z,100.00
2022-08-30T23:45:27.149Z,100.00
2022-08-30T23:47:53.510Z,100.00
2022-08-30T23:50:19.819Z,100.00
2022-08-30T23:52:46.176Z,100.00
2022-08-30T23:55:12.515Z,100.00
2022-08-30T23:57:38.835Z,100.00
